Time,TemperatureF,DewpointF,PressureIn,WindDirection,WindDirectionDegrees,WindSpeedMPH,WindSpeedGustMPH,Humidity,HourlyPrecipIn,Conditions,Clouds,dailyrainin,SoftwareType,DateUTC
2013-08-27 00:01:00,82.8,59.9,27.10,SE,135,5.8,5.8,46,0.00,RA,OVC,0.00,WeatherDisplay:10.37,2013-08-27 05:01:00,
2013-08-27 00:06:00,82.6,59.7,27.10,South,180,5.8,5.8,46,0.00,RA,OVC,0.00,WeatherDisplay:10.37,2013-08-27 05:06:00,
2013-08-27 00:11:00,82.6,59.7,27.10,South,180,4.6,4.6,46,0.00,CLR,OVC,0.00,WeatherDisplay:10.37,2013-08-27 05:11:00,
2013-08-27 00:16:00,82.2,58.8,27.10,South,180,8.1,8.1,45,0.00,CLR,OVC,0.00,WeatherDisplay:10.37,2013-08-27 05:16:00,
2013-08-27 00:21:00,82.2,58.8,27.10,SW,225,3.5,3.5,45,0.00,CLR,OVC,0.00,WeatherDisplay:10.37,2013-08-27 05:21:00,
2013-08-27 00:26:00,82.2,58.8,27.10,SE,135,5.8,5.8,45,0.00,CLR,OVC,0.00,WeatherDisplay:10.37,2013-08-27 05:26:00,
2013-08-27 00:31:00,82.2,58.8,27.10,SW,225,5.8,5.8,45,0.00,CLR,OVC,0.00,WeatherDisplay:10.37,2013-08-27 05:31:00,
2013-08-27 00:36:00,82.0,58.6,27.10,SW,225,5.8,5.8,45,0.00,CLR,OVC,0.00,WeatherDisplay:10.37,2013-08-27 05:36:00,
2013-08-27 00:41:00,81.9,58.4,27.10,South,180,4.6,4.6,45,0.00,CLR,OVC,0.00,WeatherDisplay:10.37,2013-08-27 05:41:00,
2013-08-27 00:46:00,81.9,58.4,27.10,SW,225,4.6,4.6,45,0.00,CLR,OVC,0.00,WeatherDisplay:10.37,2013-08-27 05:46:00,
2013-08-27 00:51:00,81.7,58.3,27.10,SW,225,4.6,4.6,45,0.00,CLR,OVC,0.00,WeatherDisplay:10.37,2013-08-27 05:51:00,
2013-08-27 00:56:00,81.5,58.1,27.10,SW,225,5.8,5.8,45,0.00,CLR,OVC,0.00,WeatherDisplay:10.37,2013-08-27 05:56:00,
2013-08-27 01:01:00,81.5,58.7,27.10,SW,225,4.6,4.6,46,0.00,CLR,OVC,0.00,WeatherDisplay:10.37,2013-08-27 06:01:00,
2013-08-27 01:06:00,81.5,58.7,27.10,SW,225,4.6,4.6,46,0.00,CLR,OVC,0.00,WeatherDisplay:10.37,2013-08-27 06:06:00,
2013-08-27 01:11:00,81.1,58.4,27.10,South,180,5.8,5.8,46,0.00,CLR,OVC,0.00,WeatherDisplay:10.37,2013-08-27 06:11:00,
2013-08-27 01:16:00,81.1,58.4,27.10,SW,225,4.6,4.6,46,0.00,CLR,OVC,0.00,WeatherDisplay:10.37,2013-08-27 06:16:00,
2013-08-27 01:21:00,81.0,58.2,27.10,South,180,5.8,5.8,46,0.00,CLR,OVC,0.00,WeatherDisplay:10.37,2013-08-27 06:21:00,
2013-08-27 01:26:00,81.0,58.2,27.11,South,180,3.5,3.5,46,0.00,CLR,OVC,0.00,WeatherDisplay:10.37,2013-08-27 06:26:00,
2013-08-27 01:31:00,80.8,58.1,27.10,SW,225,5.8,5.8,46,0.00,CLR,OVC,0.00,WeatherDisplay:10.37,2013-08-27 06:31:00,
2013-08-27 01:36:00,80.6,57.9,27.10,NW,315,5.8,5.8,46,0.00,CLR,OVC,0.00,WeatherDisplay:10.37,2013-08-27 06:36:00,
2013-08-27 01:41:00,80.6,57.9,27.10,SW,225,8.1,8.1,46,0.00,CLR,OVC,0.00,WeatherDisplay:10.37,2013-08-27 06:41:00,
2013-08-27 01:46:00,80.4,58.9,27.10,SW,225,5.8,5.8,48,0.00,CLR,OVC,0.00,WeatherDisplay:10.37,2013-08-27 06:46:00,
2013-08-27 01:51:00,80.4,58.9,27.10,South,180,6.9,6.9,48,0.00,CLR,OVC,0.00,WeatherDisplay:10.37,2013-08-27 06:51:00,
2013-08-27 01:56:00,80.2,58.8,27.10,SSE,158,3.5,3.8,48,0.00,CLR,OVC,0.00,WeatherDisplay:10.37,2013-08-27 06:56:00,
2013-08-27 02:01:00,80.1,58.6,27.10,South,180,6.9,6.9,48,0.00,CLR,OVC,0.00,WeatherDisplay:10.37,2013-08-27 07:01:00,
2013-08-27 02:06:00,79.9,58.4,27.09,South,180,5.8,5.8,48,0.00,CLR,OVC,0.00,WeatherDisplay:10.37,2013-08-27 07:06:00,
2013-08-27 02:11:00,79.9,58.4,27.09,South,180,6.9,6.9,48,0.00,CLR,OVC,0.00,WeatherDisplay:10.37,2013-08-27 07:11:00,
2013-08-27 02:16:00,79.9,58.4,27.09,SW,225,4.6,4.6,48,0.00,CLR,OVC,0.00,WeatherDisplay:10.37,2013-08-27 07:16:00,
2013-08-27 02:21:00,79.9,58.4,27.09,South,180,6.9,6.9,48,0.00,CLR,OVC,0.00,WeatherDisplay:10.37,2013-08-27 07:21:00,
2013-08-27 02:26:00,79.9,58.4,27.09,South,180,5.8,5.8,48,0.00,CLR,OVC,0.00,WeatherDisplay:10.37,2013-08-27 07:26:00,
2013-08-27 02:31:00,79.9,57.8,27.09,South,180,8.1,8.1,47,0.00,CLR,OVC,0.00,WeatherDisplay:10.37,2013-08-27 07:31:00,
2013-08-27 02:36:00,79.9,57.8,27.09,South,180,4.6,5.4,47,0.00,CLR,OVC,0.00,WeatherDisplay:10.37,2013-08-27 07:36:00,
2013-08-27 02:41:00,79.7,57.7,27.09,South,180,6.9,6.9,47,0.00,CLR,OVC,0.00,WeatherDisplay:10.37,2013-08-27 07:41:00,
2013-08-27 02:46:00,79.7,58.3,27.09,SW,225,4.6,4.6,48,0.00,CLR,OVC,0.00,WeatherDisplay:10.37,2013-08-27 07:46:00,
2013-08-27 02:52:00,79.5,58.1,27.09,SW,225,6.9,6.9,48,0.00,CLR,OVC,0.00,WeatherDisplay:10.37,2013-08-27 07:52:00,
2013-08-27 02:56:00,79.3,57.9,27.09,SW,225,3.5,3.5,48,0.00,CLR,OVC,0.00,WeatherDisplay:10.37,2013-08-27 07:56:00,
2013-08-27 03:02:00,79.3,57.9,27.10,South,180,4.6,4.6,48,0.00,CLR,OVC,0.00,WeatherDisplay:10.37,2013-08-27 08:02:00,
2013-08-27 03:07:00,79.3,57.9,27.09,South,180,4.6,4.6,48,0.00,CLR,OVC,0.00,WeatherDisplay:10.37,2013-08-27 08:07:00,
2013-08-27 03:12:00,79.2,57.8,27.09,South,180,3.5,3.5,48,0.00,CLR,OVC,0.00,WeatherDisplay:10.37,2013-08-27 08:12:00,
2013-08-27 03:17:00,79.0,57.6,27.10,South,180,3.5,3.5,48,0.00,CLR,OVC,0.00,WeatherDisplay:10.37,2013-08-27 08:17:00,
2013-08-27 03:22:00,78.8,58.0,27.10,South,180,4.6,4.6,49,0.00,CLR,OVC,0.00,WeatherDisplay:10.37,2013-08-27 08:22:00,
2013-08-27 03:27:00,78.4,58.3,27.10,South,180,3.5,3.5,50,0.00,CLR,OVC,0.00,WeatherDisplay:10.37,2013-08-27 08:27:00,
2013-08-27 03:32:00,78.3,58.1,27.10,SW,225,3.5,3.5,50,0.00,CLR,OVC,0.00,WeatherDisplay:10.37,2013-08-27 08:32:00,
2013-08-27 03:37:00,78.1,57.9,27.10,East,90,3.5,3.5,50,0.00,CLR,OVC,0.00,WeatherDisplay:10.37,2013-08-27 08:37:00,
2013-08-27 03:42:00,78.1,58.5,27.10,NE,45,2.3,2.3,51,0.00,CLR,OVC,0.00,WeatherDisplay:10.37,2013-08-27 08:42:00,
2013-08-27 03:47:00,77.7,58.1,27.10,East,90,2.3,2.3,51,0.00,CLR,OVC,0.00,WeatherDisplay:10.37,2013-08-27 08:47:00,
2013-08-27 03:52:00,77.7,58.1,27.10,West,270,1.2,1.2,51,0.00,CLR,OVC,0.00,WeatherDisplay:10.37,2013-08-27 08:52:00,
2013-08-27 03:57:00,77.5,58.5,27.10,North,0,3.5,3.5,52,0.00,CLR,OVC,0.00,WeatherDisplay:10.37,2013-08-27 08:57:00,
2013-08-27 04:02:00,77.5,58.5,27.11,North,0,2.3,2.3,52,0.00,CLR,OVC,0.00,WeatherDisplay:10.37,2013-08-27 09:02:00,
2013-08-27 04:07:00,77.5,58.5,27.11,NE,45,2.3,2.3,52,0.00,CLR,OVC,0.00,WeatherDisplay:10.37,2013-08-27 09:07:00,
2013-08-27 04:12:00,77.2,58.2,27.11,NNW,338,2.3,2.3,52,0.00,CLR,OVC,0.00,WeatherDisplay:10.37,2013-08-27 09:12:00,
2013-08-27 04:17:00,77.0,58.6,27.11,NE,45,3.5,3.5,53,0.00,CLR,OVC,0.00,WeatherDisplay:10.37,2013-08-27 09:17:00,
2013-08-27 04:22:00,76.6,58.7,27.10,South,180,1.2,0.0,54,0.00,CLR,OVC,0.00,WeatherDisplay:10.37,2013-08-27 09:22:00,
2013-08-27 04:27:00,76.3,58.4,27.11,West,270,3.5,3.5,54,0.00,CLR,OVC,0.00,WeatherDisplay:10.37,2013-08-27 09:27:00,
2013-08-27 04:32:00,76.3,58.9,27.10,South,180,3.5,3.5,55,0.00,CLR,OVC,0.00,WeatherDisplay:10.37,2013-08-27 09:32:00,
2013-08-27 04:37:00,76.1,58.8,27.10,North,0,1.2,0.0,55,0.00,CLR,OVC,0.00,WeatherDisplay:10.37,2013-08-27 09:37:00,
2013-08-27 04:42:00,75.7,58.4,27.10,South,180,1.2,0.0,55,0.00,CLR,OVC,0.00,WeatherDisplay:10.37,2013-08-27 09:42:00,
2013-08-27 04:47:00,75.6,58.8,27.10,South,180,0.0,0.0,56,0.00,CLR,OVC,0.00,WeatherDisplay:10.37,2013-08-27 09:47:00,
2013-08-27 04:52:00,75.2,58.4,27.10,NW,315,1.2,1.2,56,0.00,CLR,OVC,0.00,WeatherDisplay:10.37,2013-08-27 09:52:00,
2013-08-27 04:57:00,74.8,58.6,27.10,North,0,1.2,0.0,57,0.00,CLR,OVC,0.00,WeatherDisplay:10.37,2013-08-27 09:57:00,
2013-08-27 05:02:00,74.7,58.9,27.10,North,0,1.2,1.2,58,0.00,CLR,OVC,0.00,WeatherDisplay:10.37,2013-08-27 10:02:00,
2013-08-27 05:07:00,74.7,58.9,27.10,North,0,1.6,1.6,58,0.00,CLR,OVC,0.00,WeatherDisplay:10.37,2013-08-27 10:07:00,
2013-08-27 05:12:00,73.8,58.5,27.09,SE,135,1.2,1.2,59,0.00,CLR,OVC,0.00,WeatherDisplay:10.37,2013-08-27 10:12:00,
2013-08-27 05:17:00,73.4,58.7,27.10,North,0,1.2,1.2,60,0.00,CLR,OVC,0.00,WeatherDisplay:10.37,2013-08-27 10:17:00,
2013-08-27 05:22:00,73.2,59.0,27.10,SE,135,1.2,0.0,61,0.00,CLR,OVC,0.00,WeatherDisplay:10.37,2013-08-27 10:22:00,
2013-08-27 05:27:00,72.9,58.6,27.10,North,0,1.2,1.2,61,0.00,CLR,OVC,0.00,WeatherDisplay:10.37,2013-08-27 10:27:00,
2013-08-27 05:32:00,72.7,58.9,27.10,North,0,1.2,0.0,62,0.00,CLR,OVC,0.00,WeatherDisplay:10.37,2013-08-27 10:32:00,
2013-08-27 05:37:00,72.5,58.7,27.10,North,0,1.2,0.0,62,0.00,CLR,OVC,0.00,WeatherDisplay:10.37,2013-08-27 10:37:00,
2013-08-27 05:42:00,72.3,58.6,27.11,North,0,1.2,1.2,62,0.00,CLR,OVC,0.00,WeatherDisplay:10.37,2013-08-27 10:42:00,
2013-08-27 05:47:00,72.1,58.4,27.11,West,270,0.0,0.0,62,0.00,CLR,OVC,0.00,WeatherDisplay:10.37,2013-08-27 10:47:00,
2013-08-27 05:52:00,72.0,58.7,27.10,South,180,3.5,3.5,63,0.00,CLR,OVC,0.00,WeatherDisplay:10.37,2013-08-27 10:52:00,
2013-08-27 05:57:00,72.0,58.2,27.10,ENE,68,2.3,2.3,62,0.00,CLR,OVC,0.00,WeatherDisplay:10.37,2013-08-27 10:57:00,
2013-08-27 06:02:00,72.0,58.2,27.11,North,0,1.2,0.0,62,0.00,CLR,OVC,0.00,WeatherDisplay:10.37,2013-08-27 11:02:00,
2013-08-27 06:07:00,72.0,58.2,27.11,North,0,1.2,0.0,62,0.00,CLR,OVC,0.00,WeatherDisplay:10.37,2013-08-27 11:07:00,
2013-08-27 06:12:00,72.0,58.2,27.11,North,0,0.0,0.0,62,0.00,CLR,OVC,0.00,WeatherDisplay:10.37,2013-08-27 11:12:00,
2013-08-27 06:17:00,71.8,58.1,27.11,SW,225,1.2,1.2,62,0.00,CLR,OVC,0.00,WeatherDisplay:10.37,2013-08-27 11:17:00,
2013-08-27 06:22:00,71.6,58.3,27.11,South,180,1.2,0.0,63,0.00,CLR,OVC,0.00,WeatherDisplay:10.37,2013-08-27 11:22:00,
2013-08-27 06:27:00,71.2,58.4,27.11,North,0,2.3,2.3,64,0.00,CLR,OVC,0.00,WeatherDisplay:10.37,2013-08-27 11:27:00,
2013-08-27 06:32:00,71.2,58.9,27.11,North,0,1.2,1.2,65,0.00,CLR,OVC,0.00,WeatherDisplay:10.37,2013-08-27 11:32:00,
2013-08-27 06:37:00,71.1,58.7,27.11,North,0,1.2,0.0,65,0.00,CLR,OVC,0.00,WeatherDisplay:10.37,2013-08-27 11:37:00,
2013-08-27 06:42:00,70.9,58.5,27.11,North,0,1.2,0.0,65,0.00,CLR,OVC,0.00,WeatherDisplay:10.37,2013-08-27 11:42:00,
2013-08-27 06:47:00,70.7,58.4,27.11,North,0,1.2,0.0,65,0.00,CLR,OVC,0.00,WeatherDisplay:10.37,2013-08-27 11:47:00,
2013-08-27 06:52:00,70.7,58.4,27.11,East,90,1.2,0.0,65,0.00,CLR,OVC,0.00,WeatherDisplay:10.37,2013-08-27 11:52:00,
2013-08-27 06:57:00,70.5,58.2,27.11,SE,135,2.3,0.0,65,0.00,CLR,OVC,0.00,WeatherDisplay:10.37,2013-08-27 11:57:00,
2013-08-27 07:02:00,70.5,58.2,27.11,NE,45,1.2,0.0,65,0.00,CLR,OVC,0.00,WeatherDisplay:10.37,2013-08-27 12:02:00,
2013-08-27 07:07:00,70.5,58.2,27.11,NE,45,1.2,0.0,65,0.00,CLR,OVC,0.00,WeatherDisplay:10.37,2013-08-27 12:07:00,
2013-08-27 07:12:00,70.0,58.1,27.11,NE,45,1.2,1.2,66,0.00,CLR,OVC,0.00,WeatherDisplay:10.37,2013-08-27 12:12:00,
2013-08-27 07:17:00,69.8,58.3,27.12,NE,45,0.0,0.0,67,0.00,CLR,OVC,0.00,WeatherDisplay:10.37,2013-08-27 12:17:00,
2013-08-27 07:22:00,69.6,58.6,27.11,North,0,1.2,1.2,68,0.00,CLR,OVC,0.00,WeatherDisplay:10.37,2013-08-27 12:22:00,
2013-08-27 07:27:00,69.6,58.6,27.11,SE,135,1.2,1.6,68,0.00,CLR,OVC,0.00,WeatherDisplay:10.37,2013-08-27 12:27:00,
2013-08-27 07:32:00,69.6,58.6,27.11,SW,225,1.2,1.2,68,0.00,CLR,OVC,0.00,WeatherDisplay:10.37,2013-08-27 12:32:00,
2013-08-27 07:37:00,69.4,58.8,27.11,North,0,0.0,1.6,69,0.00,CLR,OVC,0.00,WeatherDisplay:10.37,2013-08-27 12:37:00,
2013-08-27 07:42:00,69.4,58.8,27.11,North,0,1.2,0.0,69,0.00,CLR,OVC,0.00,WeatherDisplay:10.37,2013-08-27 12:42:00,
2013-08-27 07:47:00,69.4,58.8,27.11,North,0,0.0,0.0,69,0.00,CLR,OVC,0.00,WeatherDisplay:10.37,2013-08-27 12:47:00,
2013-08-27 07:52:00,69.8,58.8,27.12,North,0,1.6,1.6,68,0.00,CLR,OVC,0.00,WeatherDisplay:10.37,2013-08-27 12:52:00,
2013-08-27 07:57:00,69.8,59.2,27.12,North,0,2.3,2.3,69,0.00,CLR,OVC,0.00,WeatherDisplay:10.37,2013-08-27 12:57:00,
2013-08-27 08:02:00,69.8,59.2,27.11,South,180,2.3,2.3,69,0.00,CLR,OVC,0.00,WeatherDisplay:10.37,2013-08-27 13:02:00,
2013-08-27 08:07:00,70.0,59.7,27.12,NW,315,2.3,2.3,70,0.00,CLR,OVC,0.00,WeatherDisplay:10.37,2013-08-27 13:07:00,
2013-08-27 08:12:00,70.2,59.5,27.11,North,0,0.0,0.0,69,0.00,CLR,OVC,0.00,WeatherDisplay:10.37,2013-08-27 13:12:00,
2013-08-27 08:17:00,70.5,60.3,27.11,SE,135,2.3,2.3,70,0.00,CLR,OVC,0.00,WeatherDisplay:10.37,2013-08-27 13:17:00,
2013-08-27 08:22:00,70.9,60.6,27.11,NE,45,0.0,0.0,70,0.00,CLR,OVC,0.00,WeatherDisplay:10.37,2013-08-27 13:22:00,
2013-08-27 08:27:00,71.2,60.5,27.11,East,90,1.2,0.0,69,0.00,CLR,OVC,0.00,WeatherDisplay:10.37,2013-08-27 13:27:00,
2013-08-27 08:32:00,71.8,60.2,27.11,South,180,2.3,2.3,67,0.00,CLR,OVC,0.00,WeatherDisplay:10.37,2013-08-27 13:32:00,
2013-08-27 08:37:00,72.5,60.9,27.11,SE,135,1.2,0.0,67,0.00,CLR,OVC,0.00,WeatherDisplay:10.37,2013-08-27 13:37:00,
2013-08-27 08:42:00,74.7,63.0,27.12,North,0,1.2,0.0,67,0.00,CLR,OVC,0.00,WeatherDisplay:10.37,2013-08-27 13:42:00,
2013-08-27 08:48:00,76.1,63.0,27.11,SW,225,3.5,3.5,64,0.00,CLR,OVC,0.00,WeatherDisplay:10.37,2013-08-27 13:48:00,
2013-08-27 08:53:00,75.9,62.4,27.11,SSE,158,1.2,1.2,63,0.00,CLR,OVC,0.00,WeatherDisplay:10.37,2013-08-27 13:53:00,
2013-08-27 08:58:00,75.7,61.8,27.11,South,180,1.2,1.2,62,0.00,CLR,OVC,0.00,WeatherDisplay:10.37,2013-08-27 13:58:00,
2013-08-27 09:03:00,75.7,62.2,27.11,SE,135,2.3,2.3,63,0.00,CLR,OVC,0.00,WeatherDisplay:10.37,2013-08-27 14:03:00,
2013-08-27 09:08:00,75.7,61.8,27.11,South,180,2.3,2.3,62,0.00,CLR,OVC,0.00,WeatherDisplay:10.37,2013-08-27 14:08:00,
2013-08-27 09:13:00,76.1,61.7,27.11,NE,45,1.2,1.2,61,0.00,CLR,OVC,0.00,WeatherDisplay:10.37,2013-08-27 14:13:00,
2013-08-27 09:18:00,76.6,61.7,27.11,South,180,3.5,3.5,60,0.00,CLR,OVC,0.00,WeatherDisplay:10.37,2013-08-27 14:18:00,
2013-08-27 09:23:00,77.4,60.9,27.11,South,180,3.5,3.5,57,0.00,CLR,OVC,0.00,WeatherDisplay:10.37,2013-08-27 14:23:00,
2013-08-27 09:28:00,77.5,60.6,27.11,South,180,6.9,6.9,56,0.00,CLR,OVC,0.00,WeatherDisplay:10.37,2013-08-27 14:28:00,
2013-08-27 09:33:00,78.4,61.4,27.11,South,180,3.5,3.5,56,0.00,CLR,OVC,0.00,WeatherDisplay:10.37,2013-08-27 14:33:00,
2013-08-27 09:38:00,79.3,61.2,27.11,SE,135,5.8,5.8,54,0.00,CLR,OVC,0.00,WeatherDisplay:10.37,2013-08-27 14:38:00,
2013-08-27 09:43:00,80.2,61.6,27.11,SE,135,3.5,3.5,53,0.00,CLR,OVC,0.00,WeatherDisplay:10.37,2013-08-27 14:43:00,
2013-08-27 09:48:00,81.1,61.8,27.11,South,180,5.8,5.8,52,0.00,CLR,OVC,0.00,WeatherDisplay:10.37,2013-08-27 14:48:00,
2013-08-27 09:53:00,82.0,62.1,27.11,SW,225,5.8,5.8,51,0.00,CLR,OVC,0.00,WeatherDisplay:10.37,2013-08-27 14:53:00,
2013-08-27 09:58:00,82.8,62.2,27.11,SE,135,3.5,3.5,50,0.00,CLR,OVC,0.00,WeatherDisplay:10.37,2013-08-27 14:58:00,
2013-08-27 10:03:00,83.7,62.5,27.11,South,180,3.5,3.5,49,0.00,CLR,OVC,0.00,WeatherDisplay:10.37,2013-08-27 15:03:00,
2013-08-27 10:08:00,84.0,62.8,27.11,South,180,4.6,4.6,49,0.00,CLR,OVC,0.00,WeatherDisplay:10.37,2013-08-27 15:08:00,
2013-08-27 10:13:00,85.1,62.6,27.11,SE,135,3.5,3.5,47,0.00,CLR,OVC,0.00,WeatherDisplay:10.37,2013-08-27 15:13:00,
2013-08-27 10:18:00,85.6,63.1,27.11,SE,135,3.5,3.5,47,0.00,CLR,OVC,0.00,WeatherDisplay:10.37,2013-08-27 15:18:00,
2013-08-27 10:23:00,86.2,62.3,27.11,South,180,5.8,5.8,45,0.00,CLR,OVC,0.00,WeatherDisplay:10.37,2013-08-27 15:23:00,
2013-08-27 10:28:00,86.7,62.8,27.11,SW,225,3.5,3.5,45,0.00,CLR,OVC,0.00,WeatherDisplay:10.37,2013-08-27 15:28:00,
2013-08-27 10:33:00,87.4,63.5,27.11,SW,225,6.9,6.9,45,0.00,CLR,OVC,0.00,WeatherDisplay:10.37,2013-08-27 15:33:00,
2013-08-27 10:38:00,88.3,63.7,27.11,South,180,5.8,5.8,44,0.00,CLR,OVC,0.00,WeatherDisplay:10.37,2013-08-27 15:38:00,
2013-08-27 10:43:00,88.9,63.5,27.11,SE,135,5.8,5.8,43,0.00,CLR,OVC,0.00,WeatherDisplay:10.37,2013-08-27 15:43:00,
2013-08-27 10:48:00,89.8,63.6,27.11,SE,135,2.3,2.3,42,0.00,CLR,OVC,0.00,WeatherDisplay:10.37,2013-08-27 15:48:00,
2013-08-27 10:53:00,90.5,64.3,27.11,SW,225,3.5,3.5,42,0.00,CLR,OVC,0.00,WeatherDisplay:10.37,2013-08-27 15:53:00,
2013-08-27 10:58:00,91.4,65.1,27.11,South,180,5.8,5.8,42,0.00,CLR,OVC,0.00,WeatherDisplay:10.37,2013-08-27 15:58:00,
2013-08-27 11:03:00,91.8,65.4,27.11,SE,135,4.6,4.6,42,0.00,CLR,OVC,0.00,WeatherDisplay:10.37,2013-08-27 16:03:00,
2013-08-27 11:08:00,91.8,65.4,27.11,SE,135,4.6,4.6,42,0.00,CLR,OVC,0.00,WeatherDisplay:10.37,2013-08-27 16:08:00,
2013-08-27 11:13:00,93.2,64.6,27.11,SSE,158,3.5,3.5,39,0.00,CLR,OVC,0.00,WeatherDisplay:10.37,2013-08-27 16:13:00,
2013-08-27 11:18:00,93.9,64.5,27.11,South,180,1.2,1.2,38,0.00,CLR,OVC,0.00,WeatherDisplay:10.37,2013-08-27 16:18:00,
2013-08-27 11:23:00,94.5,64.9,27.11,South,180,5.8,5.8,38,0.00,CLR,OVC,0.00,WeatherDisplay:10.37,2013-08-27 16:23:00,
2013-08-27 11:28:00,94.8,65.3,27.11,SW,225,3.5,3.5,38,0.00,CLR,OVC,0.00,WeatherDisplay:10.37,2013-08-27 16:28:00,
2013-08-27 11:33:00,95.2,64.0,27.11,SW,225,4.6,0.0,36,0.00,CLR,OVC,0.00,WeatherDisplay:10.37,2013-08-27 16:33:00,
2013-08-27 11:38:00,95.9,64.7,27.11,SW,225,2.3,2.3,36,0.00,CLR,OVC,0.00,WeatherDisplay:10.37,2013-08-27 16:38:00,
2013-08-27 11:43:00,96.4,64.3,27.11,South,180,5.8,5.8,35,0.00,CLR,OVC,0.00,WeatherDisplay:10.37,2013-08-27 16:43:00,
2013-08-27 11:48:00,97.0,64.8,27.11,West,270,3.5,0.0,35,0.00,CLR,OVC,0.00,WeatherDisplay:10.37,2013-08-27 16:48:00,
2013-08-27 11:53:00,97.5,64.4,27.11,SE,135,4.6,4.6,34,0.00,CLR,OVC,0.00,WeatherDisplay:10.37,2013-08-27 16:53:00,
2013-08-27 11:58:00,97.7,64.6,27.11,SSW,202,4.6,4.6,34,0.00,CLR,OVC,0.00,WeatherDisplay:10.37,2013-08-27 16:58:00,
2013-08-27 12:03:00,98.2,65.1,27.11,SE,135,4.6,4.6,34,0.00,CLR,OVC,0.00,WeatherDisplay:10.37,2013-08-27 17:03:00,
2013-08-27 12:08:00,98.6,64.5,27.10,NE,45,4.6,4.6,33,0.00,CLR,OVC,0.00,WeatherDisplay:10.37,2013-08-27 17:08:00,
2013-08-27 12:13:00,99.5,65.3,27.11,South,180,5.8,5.8,33,0.00,CLR,OVC,0.00,WeatherDisplay:10.37,2013-08-27 17:13:00,
2013-08-27 12:18:00,100.0,64.9,27.10,SW,225,4.6,4.6,32,0.00,CLR,OVC,0.00,WeatherDisplay:10.37,2013-08-27 17:18:00,
2013-08-27 12:23:00,100.2,64.1,27.10,SW,225,5.8,5.8,31,0.00,CLR,OVC,0.00,WeatherDisplay:10.37,2013-08-27 17:23:00,
2013-08-27 12:28:00,100.2,64.1,27.10,West,270,4.6,4.6,31,0.00,CLR,OVC,0.00,WeatherDisplay:10.37,2013-08-27 17:28:00,
2013-08-27 12:33:00,101.1,65.8,27.10,SW,225,3.5,3.5,32,0.00,CLR,OVC,0.00,WeatherDisplay:10.37,2013-08-27 17:33:00,
2013-08-27 12:38:00,101.7,67.2,27.10,SE,135,3.1,3.1,33,0.00,CLR,OVC,0.00,WeatherDisplay:10.37,2013-08-27 17:38:00,
2013-08-27 12:43:00,102.0,65.7,27.09,SW,225,5.8,5.8,31,0.00,CLR,OVC,0.00,WeatherDisplay:10.37,2013-08-27 17:43:00,
2013-08-27 12:48:00,102.6,66.1,27.10,SE,135,3.8,3.8,31,0.00,CLR,OVC,0.00,WeatherDisplay:10.37,2013-08-27 17:48:00,
2013-08-27 12:53:00,102.9,63.5,27.09,SW,225,6.9,6.9,28,0.00,CLR,OVC,0.00,WeatherDisplay:10.37,2013-08-27 17:53:00,
2013-08-27 12:58:00,103.3,62.8,27.09,South,180,9.2,9.2,27,0.00,CLR,OVC,0.00,WeatherDisplay:10.37,2013-08-27 17:58:00,
2013-08-27 13:03:00,103.3,62.8,27.09,South,180,12.7,12.7,27,0.00,CLR,OVC,0.00,WeatherDisplay:10.37,2013-08-27 18:03:00,
2013-08-27 13:08:00,103.5,64.0,27.08,South,180,12.7,12.7,28,0.00,CLR,OVC,0.00,WeatherDisplay:10.37,2013-08-27 18:08:00,
2013-08-27 13:13:00,104.0,62.3,27.08,SE,135,3.5,3.5,26,0.00,CLR,OVC,0.00,WeatherDisplay:10.37,2013-08-27 18:13:00,
2013-08-27 13:18:00,104.2,62.5,27.08,East,90,5.8,5.8,26,0.00,CLR,OVC,0.00,WeatherDisplay:10.37,2013-08-27 18:18:00,
2013-08-27 13:23:00,104.0,61.2,27.08,SW,225,5.8,5.8,25,0.00,CLR,OVC,0.00,WeatherDisplay:10.37,2013-08-27 18:23:00,
2013-08-27 13:28:00,104.0,61.2,27.08,South,180,5.8,5.8,25,0.00,CLR,OVC,0.00,WeatherDisplay:10.37,2013-08-27 18:28:00,
2013-08-27 13:33:00,104.4,61.5,27.07,SE,135,9.2,9.2,25,0.00,CLR,OVC,0.00,WeatherDisplay:10.37,2013-08-27 18:33:00,
2013-08-27 13:38:00,104.2,61.4,27.07,SW,225,4.6,4.6,25,0.00,CLR,OVC,0.00,WeatherDisplay:10.37,2013-08-27 18:38:00,
2013-08-27 13:43:00,104.4,59.2,27.07,South,180,5.8,5.8,23,0.00,CLR,OVC,0.00,WeatherDisplay:10.37,2013-08-27 18:43:00,
2013-08-27 13:48:00,104.5,59.3,27.07,SW,225,10.4,10.4,23,0.00,CLR,OVC,0.00,WeatherDisplay:10.37,2013-08-27 18:48:00,
2013-08-27 13:53:00,104.4,59.2,27.07,SE,135,6.9,6.9,23,0.00,CLR,OVC,0.00,WeatherDisplay:10.37,2013-08-27 18:53:00,
2013-08-27 13:58:00,104.4,59.2,27.06,East,90,10.4,10.4,23,0.00,CLR,OVC,0.00,WeatherDisplay:10.37,2013-08-27 18:58:00,
2013-08-27 14:03:00,104.0,58.9,27.06,SE,135,6.9,6.9,23,0.00,CLR,OVC,0.00,WeatherDisplay:10.37,2013-08-27 19:03:00,
2013-08-27 14:08:00,104.2,59.0,27.06,SW,225,4.6,4.6,23,0.00,CLR,OVC,0.00,WeatherDisplay:10.37,2013-08-27 19:08:00,
2013-08-27 14:13:00,104.0,58.9,27.06,SSW,202,3.5,3.5,23,0.00,CLR,OVC,0.00,WeatherDisplay:10.37,2013-08-27 19:13:00,
2013-08-27 14:18:00,104.2,59.0,27.06,SE,135,8.1,8.1,23,0.00,CLR,OVC,0.00,WeatherDisplay:10.37,2013-08-27 19:18:00,
2013-08-27 14:23:00,104.4,59.2,27.06,SW,225,3.5,3.5,23,0.00,CLR,OVC,0.00,WeatherDisplay:10.37,2013-08-27 19:23:00,
2013-08-27 14:29:00,104.7,58.2,27.06,SW,225,5.8,5.8,22,0.00,CLR,OVC,0.00,WeatherDisplay:10.37,2013-08-27 19:29:00,
2013-08-27 14:34:00,104.7,56.9,27.06,South,180,5.8,5.8,21,0.00,CLR,OVC,0.00,WeatherDisplay:10.37,2013-08-27 19:34:00,
2013-08-27 14:39:00,104.4,53.9,27.06,NE,45,4.6,4.6,19,0.00,CLR,OVC,0.00,WeatherDisplay:10.37,2013-08-27 19:39:00,
2013-08-27 14:44:00,104.2,55.2,27.06,SSW,202,3.5,3.8,20,0.00,CLR,OVC,0.00,WeatherDisplay:10.37,2013-08-27 19:44:00,
2013-08-27 14:49:00,104.0,50.6,27.06,SW,225,6.9,6.9,17,0.00,CLR,OVC,0.00,WeatherDisplay:10.37,2013-08-27 19:49:00,
2013-08-27 14:54:00,103.6,56.1,27.06,NE,45,3.5,0.0,21,0.00,CLR,OVC,0.00,WeatherDisplay:10.37,2013-08-27 19:54:00,
2013-08-27 14:59:00,104.0,58.9,27.05,East,90,3.5,3.5,23,0.00,CLR,OVC,0.00,WeatherDisplay:10.37,2013-08-27 19:59:00,
2013-08-27 15:04:00,104.2,56.5,27.05,South,180,5.8,5.8,21,0.00,CLR,OVC,0.00,WeatherDisplay:10.37,2013-08-27 20:04:00,
2013-08-27 15:09:00,104.2,56.5,27.05,South,180,6.0,6.0,21,0.00,CLR,OVC,0.00,WeatherDisplay:10.37,2013-08-27 20:09:00,
2013-08-27 15:14:00,102.9,49.7,27.05,South,180,1.2,1.2,17,0.00,CLR,OVC,0.00,WeatherDisplay:10.37,2013-08-27 20:14:00,
2013-08-27 15:19:00,102.9,56.8,27.05,SE,135,4.6,4.6,22,0.00,CLR,OVC,0.00,WeatherDisplay:10.37,2013-08-27 20:19:00,
2013-08-27 15:24:00,102.9,54.1,27.05,South,180,3.5,3.5,20,0.00,CLR,OVC,0.00,WeatherDisplay:10.37,2013-08-27 20:24:00,
2013-08-27 15:29:00,102.6,53.8,27.05,East,90,6.9,6.9,20,0.00,CLR,OVC,0.00,WeatherDisplay:10.37,2013-08-27 20:29:00,
2013-08-27 15:34:00,102.2,56.2,27.04,South,180,4.6,4.6,22,0.00,CLR,OVC,0.00,WeatherDisplay:10.37,2013-08-27 20:34:00,
2013-08-27 15:39:00,102.2,54.9,27.04,NW,315,5.8,0.0,21,0.00,CLR,OVC,0.00,WeatherDisplay:10.37,2013-08-27 20:39:00,
2013-08-27 15:44:00,102.4,56.3,27.04,SE,135,6.9,6.9,22,0.00,CLR,OVC,0.00,WeatherDisplay:10.37,2013-08-27 20:44:00,
2013-08-27 15:49:00,102.0,50.5,27.04,SE,135,5.8,5.8,18,0.00,CLR,OVC,0.00,WeatherDisplay:10.37,2013-08-27 20:49:00,
2013-08-27 15:54:00,102.0,54.7,27.04,South,180,3.5,3.5,21,0.00,CLR,OVC,0.00,WeatherDisplay:10.37,2013-08-27 20:54:00,
2013-08-27 15:59:00,102.0,56.0,27.04,SW,225,3.5,3.5,22,0.00,CLR,OVC,0.00,WeatherDisplay:10.37,2013-08-27 20:59:00,
2013-08-27 16:04:00,102.0,54.7,27.04,South,180,8.1,8.1,21,0.00,CLR,OVC,0.00,WeatherDisplay:10.37,2013-08-27 21:04:00,
2013-08-27 16:12:00,101.7,55.7,27.04,SE,135,6.9,6.9,22,0.00,CLR,OVC,0.00,WeatherDisplay:10.37,2013-08-27 21:12:00,
2013-08-27 16:17:00,101.5,55.6,27.04,SE,135,6.9,6.9,22,0.00,CLR,OVC,0.00,WeatherDisplay:10.37,2013-08-27 21:17:00,
2013-08-27 16:22:00,101.5,55.6,27.04,South,180,3.5,3.5,22,0.00,CLR,OVC,0.00,WeatherDisplay:10.37,2013-08-27 21:22:00,
2013-08-27 16:30:00,101.5,54.3,27.04,East,90,3.8,3.8,21,0.00,CLR,OVC,0.00,WeatherDisplay:10.37,2013-08-27 21:30:00,
2013-08-27 16:35:00,101.3,49.9,27.04,SW,225,1.2,0.0,18,0.00,CLR,OVC,0.00,WeatherDisplay:10.37,2013-08-27 21:35:00,
2013-08-27 16:47:00,101.3,56.6,27.04,SE,135,5.8,5.8,23,0.00,CLR,OVC,0.00,WeatherDisplay:10.37,2013-08-27 21:47:00,
2013-08-27 16:52:00,101.1,49.8,27.03,South,180,5.8,5.8,18,0.00,CLR,OVC,0.00,WeatherDisplay:10.37,2013-08-27 21:52:00,
2013-08-27 16:57:00,100.9,53.8,27.03,SW,225,4.6,4.6,21,0.00,CLR,OVC,0.00,WeatherDisplay:10.37,2013-08-27 21:57:00,
2013-08-27 17:02:00,100.9,49.7,27.03,South,180,2.3,2.3,18,0.00,CLR,OVC,0.00,WeatherDisplay:10.37,2013-08-27 22:02:00,
2013-08-27 17:07:00,100.9,49.7,27.03,South,180,2.3,2.3,18,0.00,CLR,OVC,0.00,WeatherDisplay:10.37,2013-08-27 22:07:00,
2013-08-27 17:12:00,100.8,52.4,27.03,South,180,5.8,5.8,20,0.00,CLR,OVC,0.00,WeatherDisplay:10.37,2013-08-27 22:12:00,
2013-08-27 17:17:00,100.2,56.9,27.03,South,180,3.5,3.5,24,0.00,CLR,OVC,0.00,WeatherDisplay:10.37,2013-08-27 22:17:00,
2013-08-27 17:22:00,100.8,57.4,27.03,South,180,3.5,3.5,24,0.00,CLR,OVC,0.00,WeatherDisplay:10.37,2013-08-27 22:22:00,
2013-08-27 17:27:00,100.2,55.7,27.03,South,180,4.6,4.6,23,0.00,CLR,OVC,0.00,WeatherDisplay:10.37,2013-08-27 22:27:00,
2013-08-27 17:32:00,100.2,56.9,27.03,SE,135,2.3,2.3,24,0.00,CLR,OVC,0.00,WeatherDisplay:10.37,2013-08-27 22:32:00,
2013-08-27 17:37:00,100.2,55.7,27.03,SE,135,5.8,5.8,23,0.00,CLR,OVC,0.00,WeatherDisplay:10.37,2013-08-27 22:37:00,
2013-08-27 17:42:00,100.2,56.9,27.03,East,90,4.6,4.6,24,0.00,CLR,OVC,0.00,WeatherDisplay:10.37,2013-08-27 22:42:00,
2013-08-27 17:47:00,100.0,56.8,27.03,SW,225,5.8,5.8,24,0.00,CLR,OVC,0.00,WeatherDisplay:10.37,2013-08-27 22:47:00,
2013-08-27 17:52:00,99.9,56.6,27.03,South,180,4.6,4.6,24,0.00,CLR,OVC,0.00,WeatherDisplay:10.37,2013-08-27 22:52:00,
2013-08-27 17:57:00,99.9,55.4,27.03,SW,225,1.2,0.0,23,0.00,CLR,OVC,0.00,WeatherDisplay:10.37,2013-08-27 22:57:00,
2013-08-27 18:02:00,99.9,57.8,27.03,SE,135,1.2,1.2,25,0.00,CLR,OVC,0.00,WeatherDisplay:10.37,2013-08-27 23:02:00,
2013-08-27 18:07:00,99.5,56.3,27.03,South,180,3.5,3.5,24,0.00,CLR,OVC,0.00,WeatherDisplay:10.37,2013-08-27 23:07:00,
2013-08-27 18:12:00,99.3,56.2,27.03,South,180,3.5,3.5,24,0.00,CLR,OVC,0.00,WeatherDisplay:10.37,2013-08-27 23:12:00,
2013-08-27 18:17:00,99.0,55.9,27.03,SE,135,3.5,3.5,24,0.00,CLR,OVC,0.00,WeatherDisplay:10.37,2013-08-27 23:17:00,
2013-08-27 18:22:00,98.8,56.8,27.03,South,180,2.3,2.3,25,0.00,CLR,OVC,0.00,WeatherDisplay:10.37,2013-08-27 23:22:00,
2013-08-27 18:27:00,98.6,55.6,27.03,West,270,0.0,0.0,24,0.00,CLR,OVC,0.00,WeatherDisplay:10.37,2013-08-27 23:27:00,
2013-08-27 18:32:00,98.4,58.7,27.03,ESE,112,1.2,0.0,27,0.00,CLR,OVC,0.00,WeatherDisplay:10.37,2013-08-27 23:32:00,
2013-08-27 18:37:00,98.2,57.5,27.03,South,180,3.5,3.5,26,0.00,CLR,OVC,0.00,WeatherDisplay:10.37,2013-08-27 23:37:00,
2013-08-27 18:42:00,97.9,56.1,27.03,SW,225,3.5,3.5,25,0.00,CLR,OVC,0.00,WeatherDisplay:10.37,2013-08-27 23:42:00,
2013-08-27 18:47:00,97.7,57.0,27.03,South,180,3.5,3.5,26,0.00,CLR,OVC,0.00,WeatherDisplay:10.37,2013-08-27 23:47:00,
2013-08-27 18:52:00,97.3,56.7,27.03,NE,45,3.5,3.5,26,0.00,CLR,OVC,0.00,WeatherDisplay:10.37,2013-08-27 23:52:00,
2013-08-27 18:57:00,97.3,56.7,27.03,South,180,2.3,2.3,26,0.00,CLR,OVC,0.00,WeatherDisplay:10.37,2013-08-27 23:57:00,
2013-08-27 19:02:00,97.2,55.5,27.03,South,180,6.9,6.9,25,0.00,CLR,OVC,0.00,WeatherDisplay:10.37,2013-08-28 00:02:00,
2013-08-27 19:07:00,97.2,55.5,27.03,South,180,6.9,6.9,25,0.00,CLR,OVC,0.00,WeatherDisplay:10.37,2013-08-28 00:07:00,
2013-08-27 19:12:00,96.6,56.1,27.03,South,180,8.1,8.1,26,0.00,CLR,OVC,0.00,WeatherDisplay:10.37,2013-08-28 00:12:00,
2013-08-27 19:17:00,96.6,56.1,27.03,South,180,9.2,9.2,26,0.00,CLR,OVC,0.00,WeatherDisplay:10.37,2013-08-28 00:17:00,
2013-08-27 19:22:00,96.8,55.2,27.03,SE,135,9.2,9.2,25,0.00,CLR,OVC,0.00,WeatherDisplay:10.37,2013-08-28 00:22:00,
2013-08-27 19:27:00,96.4,56.0,27.03,South,180,5.8,5.8,26,0.00,CLR,OVC,0.00,WeatherDisplay:10.37,2013-08-28 00:27:00,
2013-08-27 19:32:00,96.1,55.7,27.03,SE,135,5.8,5.8,26,0.00,CLR,OVC,0.00,WeatherDisplay:10.37,2013-08-28 00:32:00,
2013-08-27 19:37:00,95.7,56.4,27.03,SE,135,5.8,5.8,27,0.00,CLR,OVC,0.00,WeatherDisplay:10.37,2013-08-28 00:37:00,
2013-08-27 19:42:00,95.4,55.0,27.03,East,90,6.9,6.9,26,0.00,CLR,OVC,0.00,WeatherDisplay:10.37,2013-08-28 00:42:00,
2013-08-27 19:47:00,95.0,55.8,27.03,SSE,158,4.6,4.6,27,0.00,CLR,OVC,0.00,WeatherDisplay:10.37,2013-08-28 00:47:00,
2013-08-27 19:52:00,94.6,56.5,27.03,South,180,4.6,4.6,28,0.00,CLR,OVC,0.00,WeatherDisplay:10.37,2013-08-28 00:52:00,
2013-08-27 19:57:00,93.9,55.9,27.03,South,180,5.8,5.8,28,0.00,CLR,OVC,0.00,WeatherDisplay:10.37,2013-08-28 00:57:00,
2013-08-27 20:02:00,93.6,56.5,27.03,SE,135,5.8,5.8,29,0.00,CLR,OVC,0.00,WeatherDisplay:10.37,2013-08-28 01:02:00,
2013-08-27 20:07:00,93.2,56.2,27.03,South,180,4.6,4.6,29,0.00,CLR,OVC,0.00,WeatherDisplay:10.37,2013-08-28 01:07:00,
2013-08-27 20:12:00,92.7,56.7,27.03,SE,135,3.5,3.5,30,0.00,CLR,OVC,0.00,WeatherDisplay:10.37,2013-08-28 01:12:00,
2013-08-27 20:17:00,92.3,57.3,27.03,South,180,1.2,1.6,31,0.00,CLR,OVC,0.00,WeatherDisplay:10.37,2013-08-28 01:17:00,
2013-08-27 20:22:00,91.6,56.7,27.03,South,180,3.5,3.5,31,0.00,CLR,OVC,0.00,WeatherDisplay:10.37,2013-08-28 01:22:00,
2013-08-27 20:27:00,91.2,54.5,27.03,South,180,3.5,3.5,29,0.00,CLR,OVC,0.00,WeatherDisplay:10.37,2013-08-28 01:27:00,
2013-08-27 20:32:00,90.5,53.9,27.03,South,180,2.3,2.3,29,0.00,CLR,OVC,0.00,WeatherDisplay:10.37,2013-08-28 01:32:00,
2013-08-27 20:37:00,90.1,53.6,27.04,South,180,4.6,4.6,29,0.00,CLR,OVC,0.00,WeatherDisplay:10.37,2013-08-28 01:37:00,
2013-08-27 20:42:00,89.8,53.3,27.04,South,180,3.5,3.5,29,0.00,CLR,OVC,0.00,WeatherDisplay:10.37,2013-08-28 01:42:00,
2013-08-27 20:47:00,89.4,53.9,27.04,East,90,4.6,4.6,30,0.00,CLR,OVC,0.00,WeatherDisplay:10.37,2013-08-28 01:47:00,
2013-08-27 20:53:00,88.9,53.4,27.04,South,180,1.2,1.2,30,0.00,CLR,OVC,0.00,WeatherDisplay:10.37,2013-08-28 01:53:00,
2013-08-27 20:58:00,88.3,53.9,27.04,SW,225,4.6,4.6,31,0.00,CLR,OVC,0.00,WeatherDisplay:10.37,2013-08-28 01:58:00,
2013-08-27 21:03:00,88.0,54.4,27.04,SW,225,1.2,0.0,32,0.00,CLR,OVC,0.00,WeatherDisplay:10.37,2013-08-28 02:03:00,
2013-08-27 21:08:00,87.3,55.5,27.04,East,90,1.2,1.2,34,0.00,CLR,OVC,0.00,WeatherDisplay:10.37,2013-08-28 02:08:00,
2013-08-27 21:13:00,86.7,55.8,27.05,SE,135,1.2,0.0,35,0.00,CLR,OVC,0.00,WeatherDisplay:10.37,2013-08-28 02:13:00,
2013-08-27 21:18:00,78.8,61.8,27.22,SW,225,3.8,3.8,56,0.00,CLR,OVC,0.00,WeatherDisplay:10.37,2013-08-28 02:18:00,
2013-08-27 21:23:00,85.5,57.0,27.05,South,180,1.2,0.0,38,0.17,RA,OVC,0.17,WeatherDisplay:10.37,2013-08-28 02:23:00,
2013-08-27 21:28:00,84.9,57.2,27.05,SW,225,5.8,5.8,39,0.17,RA,OVC,0.17,WeatherDisplay:10.37,2013-08-28 02:28:00,
2013-08-27 21:33:00,84.9,57.2,27.05,SE,135,2.3,2.3,39,0.17,CLR,OVC,0.17,WeatherDisplay:10.37,2013-08-28 02:33:00,
2013-08-27 21:38:00,84.7,57.7,27.05,SE,135,3.5,3.5,40,0.17,CLR,OVC,0.17,WeatherDisplay:10.37,2013-08-28 02:38:00,
2013-08-27 21:43:00,84.6,58.3,27.06,SE,135,4.6,4.6,41,0.17,CLR,OVC,0.17,WeatherDisplay:10.37,2013-08-28 02:43:00,
2013-08-27 21:48:00,84.6,58.3,27.06,SW,225,5.8,5.8,41,0.17,CLR,OVC,0.17,WeatherDisplay:10.37,2013-08-28 02:48:00,
2013-08-27 21:53:00,84.6,58.3,27.06,SW,225,5.8,5.8,41,0.17,CLR,OVC,0.17,WeatherDisplay:10.37,2013-08-28 02:53:00,
2013-08-27 21:58:00,84.6,58.3,27.06,SE,135,3.5,3.5,41,0.17,CLR,OVC,0.17,WeatherDisplay:10.37,2013-08-28 02:58:00,
2013-08-27 22:03:00,84.4,58.8,27.06,SW,225,4.6,4.6,42,0.17,CLR,OVC,0.17,WeatherDisplay:10.37,2013-08-28 03:03:00,
2013-08-27 22:08:00,84.2,58.6,27.06,SE,135,4.6,4.6,42,0.17,CLR,OVC,0.17,WeatherDisplay:10.37,2013-08-28 03:08:00,
2013-08-27 22:13:00,83.8,59.0,27.06,SE,135,3.5,3.5,43,0.17,CLR,OVC,0.17,WeatherDisplay:10.37,2013-08-28 03:13:00,
2013-08-27 22:18:00,83.5,59.3,27.06,SE,135,5.8,5.8,44,0.17,CLR,OVC,0.17,WeatherDisplay:10.37,2013-08-28 03:18:00,
2013-08-27 22:23:00,83.3,59.7,27.07,South,180,5.8,5.8,45,0.00,CLR,OVC,0.17,WeatherDisplay:10.37,2013-08-28 03:23:00,
2013-08-27 22:28:00,82.9,59.4,27.07,SE,135,3.5,3.5,45,0.00,CLR,OVC,0.17,WeatherDisplay:10.37,2013-08-28 03:28:00,
2013-08-27 22:33:00,82.8,59.3,27.07,SE,135,3.5,3.5,45,0.00,CLR,OVC,0.17,WeatherDisplay:10.37,2013-08-28 03:33:00,
2013-08-27 22:38:00,82.2,57.5,27.07,South,180,2.3,3.1,43,0.00,CLR,OVC,0.17,WeatherDisplay:10.37,2013-08-28 03:38:00,
2013-08-27 22:43:00,82.2,57.5,27.07,East,90,2.3,0.0,43,0.00,CLR,OVC,0.17,WeatherDisplay:10.37,2013-08-28 03:43:00,
2013-08-27 22:48:00,82.0,58.0,27.07,South,180,3.5,0.0,44,0.00,CLR,OVC,0.17,WeatherDisplay:10.37,2013-08-28 03:48:00,
2013-08-27 22:53:00,81.9,57.8,27.08,SE,135,2.3,0.0,44,0.00,CLR,OVC,0.17,WeatherDisplay:10.37,2013-08-28 03:53:00,
2013-08-27 22:59:00,81.7,57.6,27.08,NE,45,1.2,0.0,44,0.00,CLR,OVC,0.17,WeatherDisplay:10.37,2013-08-28 03:59:00,
2013-08-27 23:01:00,81.5,58.1,27.08,SE,135,3.5,3.5,45,0.00,CLR,OVC,0.17,WeatherDisplay:10.37,2013-08-28 04:01:00,
2013-08-27 23:06:00,81.5,58.1,27.08,SE,135,3.5,3.5,45,0.00,CLR,OVC,0.17,WeatherDisplay:10.37,2013-08-28 04:06:00,
2013-08-27 23:11:00,81.0,57.6,27.08,East,90,0.0,0.0,45,0.00,CLR,OVC,0.17,WeatherDisplay:10.37,2013-08-28 04:11:00,
2013-08-27 23:14:00,80.8,57.5,27.08,East,90,1.2,0.0,45,0.00,CLR,OVC,0.17,WeatherDisplay:10.37,2013-08-28 04:14:00,
2013-08-27 23:19:00,80.4,58.3,27.08,East,90,3.5,3.5,47,0.00,CLR,OVC,0.17,WeatherDisplay:10.37,2013-08-28 04:19:00,
2013-08-27 23:24:00,80.1,58.0,27.08,South,180,1.2,0.0,47,0.00,CLR,OVC,0.17,WeatherDisplay:10.37,2013-08-28 04:24:00,
2013-08-27 23:30:00,79.9,57.8,27.08,SE,135,2.3,0.0,47,0.00,CLR,OVC,0.17,WeatherDisplay:10.37,2013-08-28 04:30:00,
2013-08-27 23:35:00,79.7,58.3,27.08,SW,225,0.0,0.0,48,0.00,CLR,OVC,0.17,WeatherDisplay:10.37,2013-08-28 04:35:00,
2013-08-27 23:40:00,79.3,57.9,27.08,East,90,1.2,0.0,48,0.00,CLR,OVC,0.17,WeatherDisplay:10.37,2013-08-28 04:40:00,
2013-08-27 23:45:00,79.2,57.8,27.08,SE,135,0.0,0.0,48,0.00,CLR,OVC,0.17,WeatherDisplay:10.37,2013-08-28 04:45:00,
2013-08-27 23:50:00,79.0,58.2,27.09,East,90,1.2,0.0,49,0.00,CLR,OVC,0.17,WeatherDisplay:10.37,2013-08-28 04:50:00,
2013-08-27 23:55:00,78.8,58.6,27.08,North,0,0.0,0.0,50,0.00,CLR,OVC,0.17,WeatherDisplay:10.37,2013-08-28 04:55:00,